Hampton Falls, NH (03844)

11:35 PM EST on January 19, 2017 (GMT -0500)
Hampton Falls River Estuary | | Change Station

Elev 33 ft 42.91 °N, 70.86 °W | Updated 27 seconds ago

Overcast
Overcast
35.6 °F
Feels Like 36 °F
N
0.0
Wind Variable Wind from NW
Gusts 0.0 mph

Today
High -- | Low -- °F
--% Chance of Precip.
Yesterday
High -- | Low -- °F
Precip. -- in
Pressure 30.03 in
Visibility 10.0 miles
Clouds Overcast 3000 ft
Windchill 36 °F
Dew Point 12 °F
Humidity 37%
Rainfall 0.00 in
Snow Depth Not available.
7:09 AM 4:39 PM
Waning Gibbous, 48% visible
METAR KPSM 200358Z 00000KT 10SM OVC030 02/M01 A3002 RMK AO2A SLP169 T00201012
Pressure 30.03 in
Visibility 10.0 miles
Clouds Overcast 3000 ft
Windchill 36 °F
Dew Point 12 °F
Humidity 37%
Rainfall 0.00 in
Snow Depth Not available.
7:09 AM 4:39 PM
Waning Gibbous, 48% visible
METAR KPSM 200358Z 00000KT 10SM OVC030 02/M01 A3002 RMK AO2A SLP169 T00201012

Get Your Daily Forecast Email!

Thanks for signing up!

Be on the lookout for a verification email in your inbox.

You'll start receiving the daily forecast at 8 AM.

×

10-Day Weather Forecast

Almanac

Astronomy

Jan. 19, 2017 Rise Set
Actual Time
Civil Twilight
Nautical Twilight
Astronomical Twilight
Moon
Length of Visible Light
Length of Day
Tomorrow will be .
, % of the Moon is Illuminated

Today's Extremes

State Highs State Lows

Community

WunderPhotos

Upload Photos

1,962,540 photos uploaded!

WunderBlog® & News

Nearby

Air Quality

  Air Quality AQ Index Pollutant
Not available.

Snow Depth

Station Depth Elevation

Earthquake Activity

City Distance Mag. Time & Date
Minimum magnitude displayed is 2.5.

Coastal Water Temperatures

Place Temperature

Stations

Nearby Weather Stations

Station Location Temp. Windchill Dew Point Humidity Wind Precip. Elev Updated Type
                   

Watches & Warnings

Small Craft for Hazardous Seas Advisory
Issued: 2:30 PM EST Jan. 19, 2017 – National Weather Service

... Small Craft Advisory for hazardous seas now in effect until
7 am EST Friday...

* seas... 4 to 6 feet.

Precautionary/preparedness actions...

A Small Craft Advisory for hazardous seas means that waves are
expected to be hazardous to small craft. Mariners should avoid
shoaling areas. Long period swell can sharpen into large breaking
waves in shoaling areas. It is not unusual for waves to break
much farther from shoaling areas than is normally experienced.
Remember... breaking waves can easily capsize even larger vessels.